createdAt,value
2018-10-09T00:01:16.642Z,6.24
2018-10-09T00:03:49.281Z,6.15
2018-10-09T00:06:21.805Z,6.20
2018-10-09T00:08:54.821Z,6.16
2018-10-09T00:11:27.428Z,6.18
2018-10-09T00:13:59.985Z,6.31
2018-10-09T00:16:32.988Z,6.43
2018-10-09T00:19:06.544Z,6.47
2018-10-09T00:21:39.103Z,6.43
2018-10-09T00:24:12.956Z,6.40
2018-10-09T00:26:45.446Z,6.44
2018-10-09T00:29:18.094Z,6.52
2018-10-09T00:31:52.282Z,6.68
2018-10-09T00:34:24.920Z,6.81
2018-10-09T00:36:57.446Z,6.69
2018-10-09T00:39:30.710Z,6.59
2018-10-09T00:42:03.257Z,6.52
2018-10-09T00:44:38.461Z,6.54
2018-10-09T00:47:11.886Z,6.48
2018-10-09T00:49:44.648Z,6.40
2018-10-09T00:52:18.024Z,6.36
2018-10-09T00:54:51.226Z,6.31
2018-10-09T00:57:24.244Z,6.23
2018-10-09T00:59:56.866Z,6.21
2018-10-09T01:02:29.977Z,6.19
2018-10-09T01:05:02.545Z,6.10
2018-10-09T01:07:36.082Z,5.98
2018-10-09T01:10:11.202Z,5.89
2018-10-09T01:12:43.999Z,5.85
2018-10-09T01:15:15.904Z,5.89
2018-10-09T01:17:49.774Z,5.91
2018-10-09T01:20:30.312Z,6.00
2018-10-09T01:23:06.037Z,5.94
2018-10-09T01:25:39.137Z,5.84
2018-10-09T01:28:12.191Z,5.95
2018-10-09T01:30:44.882Z,5.99
2018-10-09T01:33:17.528Z,5.99
2018-10-09T01:35:51.410Z,6.08
2018-10-09T01:38:23.970Z,6.18
2018-10-09T01:40:56.909Z,6.18
2018-10-09T01:43:30.080Z,6.16
2018-10-09T01:46:02.678Z,6.07
2018-10-09T01:48:35.210Z,5.93
2018-10-09T01:51:09.419Z,5.79
2018-10-09T01:53:42.006Z,5.70
2018-10-09T01:56:14.691Z,5.71
2018-10-09T01:58:49.589Z,5.73
2018-10-09T02:01:22.166Z,5.72
2018-10-09T02:03:55.009Z,5.68
2018-10-09T02:06:28.211Z,5.78
2018-10-09T02:09:00.733Z,5.84
2018-10-09T02:11:33.326Z,5.70
2018-10-09T02:14:06.239Z,5.64
2018-10-09T02:16:38.961Z,5.68
2018-10-09T02:19:11.496Z,5.58
2018-10-09T02:21:44.670Z,5.48
2018-10-09T02:24:17.266Z,5.42
2018-10-09T02:26:49.761Z,5.51
2018-10-09T02:29:22.826Z,5.62
2018-10-09T02:31:55.384Z,5.63
2018-10-09T02:34:28.739Z,5.57
2018-10-09T02:37:03.255Z,5.52
2018-10-09T02:39:36.639Z,5.59
2018-10-09T02:42:09.845Z,5.70
2018-10-09T02:44:42.748Z,5.75
2018-10-09T02:47:17.163Z,5.64
2018-10-09T02:49:51.124Z,5.52
2018-10-09T02:52:24.496Z,5.41
2018-10-09T02:54:57.759Z,5.32
2018-10-09T02:57:30.837Z,5.29
2018-10-09T03:00:07.165Z,5.27
2018-10-09T03:02:39.813Z,5.35
2018-10-09T03:05:13.076Z,5.40
2018-10-09T03:07:46.207Z,5.39
2018-10-09T03:10:18.849Z,5.42
2018-10-09T03:12:52.409Z,5.45
2018-10-09T03:15:26.235Z,5.58
2018-10-09T03:17:58.703Z,5.61
2018-10-09T03:20:31.467Z,5.55
2018-10-09T03:23:04.748Z,5.46
2018-10-09T03:25:37.441Z,5.40
2018-10-09T03:28:10.106Z,5.40
2018-10-09T03:30:42.932Z,5.36
2018-10-09T03:33:15.404Z,5.35
2018-10-09T03:35:48.065Z,5.25
2018-10-09T03:38:20.610Z,5.20
2018-10-09T03:40:53.441Z,5.20
2018-10-09T03:43:25.959Z,5.18
2018-10-09T03:45:58.404Z,5.22
2018-10-09T03:48:31.586Z,5.30
2018-10-09T03:51:05.022Z,5.36
2018-10-09T03:53:37.740Z,5.40
2018-10-09T03:56:10.694Z,5.41
2018-10-09T03:58:46.523Z,5.38
2018-10-09T04:01:18.956Z,5.24
2018-10-09T04:03:51.935Z,5.13
2018-10-09T04:06:24.545Z,5.09
2018-10-09T04:08:57.071Z,5.05
2018-10-09T04:11:30.842Z,5.00
2018-10-09T04:14:06.047Z,5.03
2018-10-09T04:16:39.432Z,5.16
2018-10-09T04:19:13.485Z,5.08
2018-10-09T04:21:45.824Z,4.99
2018-10-09T04:24:25.248Z,4.99
2018-10-09T04:26:58.662Z,5.04
2018-10-09T04:29:32.289Z,4.95
2018-10-09T04:32:05.130Z,5.00
2018-10-09T04:34:38.122Z,4.93
2018-10-09T04:37:10.712Z,4.89
2018-10-09T04:39:43.523Z,4.84
2018-10-09T04:42:17.715Z,4.71
2018-10-09T04:44:51.331Z,4.64
2018-10-09T04:47:24.919Z,4.63
2018-10-09T04:50:04.383Z,4.63
2018-10-09T04:52:37.283Z,4.69
2018-10-09T04:55:09.809Z,4.62
2018-10-09T04:57:43.102Z,4.52
2018-10-09T05:00:17.213Z,4.47
2018-10-09T05:02:49.644Z,4.44
2018-10-09T05:05:22.558Z,4.43
2018-10-09T05:07:55.412Z,4.43
2018-10-09T05:10:31.661Z,4.48
2018-10-09T05:13:08.775Z,4.49
2018-10-09T05:15:44.695Z,4.51
2018-10-09T05:18:20.951Z,4.50
2018-10-09T05:21:01.422Z,4.41
2018-10-09T05:23:37.459Z,4.43
2018-10-09T05:26:13.265Z,4.49
2018-10-09T05:28:50.166Z,4.49
2018-10-09T05:31:26.447Z,4.48
2018-10-09T05:34:02.645Z,4.41
2018-10-09T05:36:39.670Z,4.36
2018-10-09T05:39:15.796Z,4.40
2018-10-09T05:41:49.541Z,4.47
2018-10-09T05:44:26.368Z,4.50
2018-10-09T05:47:01.634Z,4.57
2018-10-09T05:49:38.449Z,4.65
2018-10-09T05:52:16.459Z,4.65
2018-10-09T05:54:52.575Z,4.57
2018-10-09T05:57:29.300Z,4.51
2018-10-09T06:00:13.426Z,4.54
2018-10-09T06:03:02.207Z,4.58
2018-10-09T06:05:40.071Z,4.52
2018-10-09T06:08:20.445Z,4.61
2018-10-09T06:10:55.018Z,4.75
2018-10-09T06:13:28.220Z,4.76
2018-10-09T06:16:01.596Z,4.80
2018-10-09T06:18:34.162Z,4.78
2018-10-09T06:21:09.212Z,4.83
2018-10-09T06:23:43.937Z,4.94
2018-10-09T06:26:16.508Z,5.10
2018-10-09T06:28:52.400Z,5.21
2018-10-09T06:31:25.843Z,5.31
2018-10-09T06:34:01.563Z,5.47
2018-10-09T06:36:37.193Z,5.53
2018-10-09T06:39:11.988Z,5.52
2018-10-09T06:41:45.979Z,5.50
2018-10-09T06:44:21.291Z,5.51
2018-10-09T06:46:55.087Z,5.57
2018-10-09T06:49:28.753Z,5.69
2018-10-09T06:52:05.181Z,5.84
2018-10-09T06:54:37.793Z,6.01
2018-10-09T06:57:10.256Z,6.17
2018-10-09T06:59:44.479Z,6.35
2018-10-09T07:02:17.901Z,6.56
2018-10-09T07:04:50.383Z,6.68
2018-10-09T07:07:23.443Z,6.80
2018-10-09T07:09:56.206Z,6.92
2018-10-09T07:12:29.645Z,7.04
2018-10-09T07:15:08.292Z,7.22
2018-10-09T07:17:40.907Z,7.37
2018-10-09T07:20:13.685Z,7.54
2018-10-09T07:22:46.656Z,7.69
2018-10-09T07:25:19.164Z,7.82
2018-10-09T07:27:51.930Z,8.00
2018-10-09T07:30:24.798Z,8.18
2018-10-09T07:32:57.781Z,8.36
2018-10-09T07:35:30.430Z,8.54
2018-10-09T07:38:05.453Z,8.73
2018-10-09T07:40:38.320Z,8.87
2018-10-09T07:43:11.009Z,9.05
2018-10-09T07:45:44.435Z,9.18
2018-10-09T07:48:16.920Z,9.35
2018-10-09T07:50:50.448Z,9.46
2018-10-09T07:53:23.504Z,9.54
2018-10-09T07:55:56.765Z,9.59
2018-10-09T07:58:32.823Z,9.66
2018-10-09T08:01:06.469Z,9.69
2018-10-09T08:03:39.605Z,9.72
2018-10-09T08:06:13.773Z,9.76
2018-10-09T08:08:46.416Z,9.82
2018-10-09T08:11:19.371Z,9.88
2018-10-09T08:13:51.944Z,9.99
2018-10-09T08:16:24.643Z,10.19
2018-10-09T08:19:02.012Z,10.38
2018-10-09T08:21:35.881Z,10.62
2018-10-09T08:24:09.450Z,10.91
2018-10-09T08:26:45.998Z,11.15
2018-10-09T08:29:19.981Z,11.45
2018-10-09T08:31:55.005Z,11.73
2018-10-09T08:34:29.189Z,11.92
2018-10-09T08:37:01.728Z,12.15
2018-10-09T08:39:38.311Z,12.44
2018-10-09T08:42:13.876Z,12.73
2018-10-09T08:44:48.267Z,13.04
2018-10-09T08:47:22.481Z,13.39
2018-10-09T08:49:58.290Z,13.82
2018-10-09T08:52:30.900Z,14.19
2018-10-09T08:55:03.569Z,14.67
2018-10-09T08:57:39.961Z,15.18
2018-10-09T09:00:16.895Z,15.83
2018-10-09T09:02:50.414Z,16.43
2018-10-09T09:05:23.470Z,17.04
2018-10-09T09:07:59.635Z,17.48
2018-10-09T09:10:35.081Z,17.66
2018-10-09T09:13:09.335Z,18.00
2018-10-09T09:15:41.782Z,18.42
2018-10-09T09:18:15.792Z,18.51
2018-10-09T09:20:50.266Z,18.79
2018-10-09T09:23:22.711Z,18.98
2018-10-09T09:25:55.770Z,18.91
2018-10-09T09:28:28.226Z,18.82
2018-10-09T09:31:01.548Z,18.84
2018-10-09T09:33:37.789Z,19.02
2018-10-09T09:36:10.436Z,19.28
2018-10-09T09:38:46.323Z,19.37
2018-10-09T09:41:19.729Z,19.39
2018-10-09T09:43:52.526Z,19.59
2018-10-09T09:46:34.013Z,19.73
2018-10-09T09:49:06.608Z,19.82
2018-10-09T09:51:40.827Z,20.11
2018-10-09T09:54:14.527Z,20.09
2018-10-09T09:56:47.167Z,20.10
2018-10-09T09:59:19.731Z,20.07
2018-10-09T10:01:52.784Z,20.11
2018-10-09T10:04:27.915Z,20.29
2018-10-09T10:07:01.808Z,20.45
2018-10-09T10:09:40.865Z,20.50
2018-10-09T10:12:14.577Z,20.71
2018-10-09T10:14:50.201Z,20.83
2018-10-09T10:17:24.118Z,20.86
2018-10-09T10:19:56.911Z,21.16
2018-10-09T10:22:29.974Z,21.47
2018-10-09T10:25:02.492Z,21.53
2018-10-09T10:27:36.284Z,21.53
2018-10-09T10:30:10.359Z,21.96
2018-10-09T10:32:46.687Z,22.26
2018-10-09T10:35:19.460Z,22.14
2018-10-09T10:37:52.572Z,22.14
2018-10-09T10:40:30.820Z,22.27
2018-10-09T10:43:04.765Z,22.45
2018-10-09T10:45:42.455Z,22.27
2018-10-09T10:48:15.388Z,22.52
2018-10-09T10:50:48.946Z,22.26
2018-10-09T10:53:21.570Z,21.61
2018-10-09T10:55:54.212Z,21.06
2018-10-09T10:58:27.100Z,20.45
2018-10-09T11:01:00.101Z,20.20
2018-10-09T11:03:33.826Z,20.44
2018-10-09T11:06:06.680Z,20.98
2018-10-09T11:08:43.861Z,21.57
2018-10-09T11:11:19.691Z,22.20
2018-10-09T11:13:52.276Z,22.60
2018-10-09T11:16:26.077Z,22.30
2018-10-09T11:19:02.462Z,22.08
2018-10-09T11:21:35.059Z,21.68
2018-10-09T11:24:13.368Z,21.04
2018-10-09T11:26:49.164Z,20.63
2018-10-09T11:29:24.192Z,20.65
2018-10-09T11:32:05.063Z,20.76
2018-10-09T11:34:38.946Z,21.06
2018-10-09T11:37:17.152Z,21.50
2018-10-09T11:39:49.743Z,21.90
2018-10-09T11:42:24.077Z,22.07
2018-10-09T11:45:00.187Z,22.15
2018-10-09T11:47:34.767Z,22.05
2018-10-09T11:50:09.767Z,22.17
2018-10-09T11:52:43.512Z,22.10
2018-10-09T11:55:16.997Z,21.85
2018-10-09T11:57:51.264Z,21.93
2018-10-09T12:00:24.061Z,21.98
2018-10-09T12:02:57.747Z,22.26
2018-10-09T12:05:31.446Z,22.34
2018-10-09T12:08:08.235Z,22.58
2018-10-09T12:10:41.625Z,22.60
2018-10-09T12:13:15.995Z,22.55
2018-10-09T12:15:53.357Z,22.73
2018-10-09T12:18:25.897Z,22.58
2018-10-09T12:20:59.428Z,22.51
2018-10-09T12:23:34.886Z,22.74
2018-10-09T12:26:10.072Z,23.22
2018-10-09T12:28:43.934Z,23.16
2018-10-09T12:31:18.867Z,23.26
2018-10-09T12:33:54.973Z,23.37
2018-10-09T12:36:29.894Z,23.80
2018-10-09T12:39:12.664Z,23.91
2018-10-09T12:41:48.309Z,24.08
2018-10-09T12:44:26.285Z,24.20
2018-10-09T12:46:59.548Z,24.34
2018-10-09T12:49:33.707Z,24.75
2018-10-09T12:52:08.544Z,24.68
2018-10-09T12:54:42.933Z,24.59
2018-10-09T12:57:15.749Z,24.65
2018-10-09T12:59:51.739Z,25.11
2018-10-09T13:02:26.947Z,25.19
2018-10-09T13:05:02.317Z,25.13
2018-10-09T13:07:37.877Z,24.97
2018-10-09T13:10:12.581Z,24.99
2018-10-09T13:12:46.410Z,25.11
2018-10-09T13:15:21.929Z,25.23
2018-10-09T13:17:55.248Z,25.41
2018-10-09T13:20:30.180Z,25.40
2018-10-09T13:23:06.440Z,25.67
2018-10-09T13:25:40.481Z,25.96
2018-10-09T13:28:14.594Z,25.72
2018-10-09T13:30:49.219Z,25.35
2018-10-09T13:33:22.620Z,25.38
2018-10-09T13:35:56.974Z,25.55
2018-10-09T13:38:31.707Z,25.26
2018-10-09T13:41:12.141Z,25.29
2018-10-09T13:43:47.999Z,25.38
2018-10-09T13:46:23.146Z,24.93
2018-10-09T13:48:56.599Z,24.46
2018-10-09T13:51:32.299Z,24.34
2018-10-09T13:54:07.373Z,24.47
2018-10-09T13:56:43.402Z,24.41
2018-10-09T13:59:16.525Z,24.30
2018-10-09T14:01:49.425Z,24.19
2018-10-09T14:04:24.035Z,24.01
2018-10-09T14:06:56.716Z,23.69
2018-10-09T14:09:29.635Z,23.47
2018-10-09T14:12:02.720Z,23.35
2018-10-09T14:14:35.949Z,23.25
2018-10-09T14:17:09.148Z,23.35
2018-10-09T14:19:43.719Z,23.28
2018-10-09T14:22:16.337Z,23.15
2018-10-09T14:24:51.886Z,23.07
2018-10-09T14:27:24.976Z,22.92
2018-10-09T14:29:57.491Z,22.91
2018-10-09T14:32:30.035Z,23.04
2018-10-09T14:35:04.409Z,23.34
2018-10-09T14:37:36.968Z,23.68
2018-10-09T14:40:10.473Z,23.88
2018-10-09T14:42:45.802Z,23.96
2018-10-09T14:45:19.166Z,24.24
2018-10-09T14:47:52.166Z,24.45
2018-10-09T14:50:25.033Z,24.50
2018-10-09T14:53:00.078Z,24.53
2018-10-09T14:55:33.550Z,24.51
2018-10-09T14:58:08.368Z,24.45
2018-10-09T15:00:40.913Z,24.34
2018-10-09T15:03:14.376Z,24.37
2018-10-09T15:05:48.217Z,24.25
2018-10-09T15:08:22.478Z,23.97
2018-10-09T15:10:54.931Z,23.79
2018-10-09T15:13:28.873Z,23.57
2018-10-09T15:16:02.507Z,23.40
2018-10-09T15:18:36.068Z,23.20
2018-10-09T15:21:10.498Z,23.08
2018-10-09T15:23:44.189Z,23.02
2018-10-09T15:26:17.604Z,22.96
2018-10-09T15:28:50.388Z,22.93
2018-10-09T15:31:26.282Z,22.90
2018-10-09T15:34:00.679Z,22.88
2018-10-09T15:36:36.000Z,22.82
2018-10-09T15:39:11.628Z,22.67
2018-10-09T15:41:45.508Z,22.53
2018-10-09T15:44:19.804Z,22.45
2018-10-09T15:46:53.666Z,22.32
2018-10-09T15:49:31.588Z,22.26
2018-10-09T15:52:09.621Z,22.16
2018-10-09T15:54:46.971Z,22.02
2018-10-09T15:57:21.915Z,21.87
2018-10-09T15:59:57.541Z,21.73
2018-10-09T16:02:32.885Z,21.62
2018-10-09T16:05:07.912Z,21.52
2018-10-09T16:07:42.737Z,21.42
2018-10-09T16:10:18.788Z,21.33
2018-10-09T16:12:56.799Z,21.26
2018-10-09T16:15:31.305Z,21.17
2018-10-09T16:18:09.329Z,21.04
2018-10-09T16:20:42.482Z,20.92
2018-10-09T16:23:18.018Z,20.86
2018-10-09T16:25:54.865Z,20.74
2018-10-09T16:28:30.560Z,20.61
2018-10-09T16:31:05.660Z,20.40
2018-10-09T16:33:39.907Z,20.18
2018-10-09T16:36:16.049Z,19.97
2018-10-09T16:38:49.459Z,19.73
2018-10-09T16:41:29.732Z,19.52
2018-10-09T16:44:07.488Z,19.31
2018-10-09T16:46:42.960Z,19.12
2018-10-09T16:49:21.627Z,18.95
2018-10-09T16:52:07.089Z,18.76
2018-10-09T16:54:42.103Z,18.59
2018-10-09T16:57:15.617Z,18.44
2018-10-09T16:59:50.551Z,18.28
2018-10-09T17:02:25.578Z,18.09
2018-10-09T17:04:58.015Z,17.91
2018-10-09T17:07:31.045Z,17.73
2018-10-09T17:10:04.988Z,17.54
2018-10-09T17:12:44.860Z,17.38
2018-10-09T17:15:17.381Z,17.20
2018-10-09T17:17:54.492Z,16.98
2018-10-09T17:20:27.239Z,16.79
2018-10-09T17:23:03.283Z,16.65
2018-10-09T17:25:37.941Z,16.45
2018-10-09T17:28:11.596Z,16.24
2018-10-09T17:30:45.056Z,16.07
2018-10-09T17:33:19.833Z,15.90
2018-10-09T17:35:54.490Z,15.74
2018-10-09T17:38:29.340Z,15.55
2018-10-09T17:41:01.964Z,15.38
2018-10-09T17:43:37.532Z,15.23
2018-10-09T17:46:11.565Z,15.10
2018-10-09T17:48:44.937Z,14.98
2018-10-09T17:51:18.981Z,14.84
2018-10-09T17:53:52.347Z,14.71
2018-10-09T17:56:28.683Z,14.64
2018-10-09T17:59:03.568Z,14.53
2018-10-09T18:01:38.773Z,14.44
2018-10-09T18:04:12.237Z,14.28
2018-10-09T18:06:46.812Z,14.20
2018-10-09T18:09:21.305Z,14.17
2018-10-09T18:11:56.929Z,14.01
2018-10-09T18:14:32.690Z,13.89
2018-10-09T18:17:09.824Z,13.85
2018-10-09T18:19:45.071Z,13.85
2018-10-09T18:22:19.490Z,13.77
2018-10-09T18:24:54.698Z,13.68
2018-10-09T18:27:29.508Z,13.56
2018-10-09T18:30:05.193Z,13.41
2018-10-09T18:32:37.840Z,13.25
2018-10-09T18:35:12.417Z,13.11
2018-10-09T18:37:44.981Z,12.98
2018-10-09T18:40:18.002Z,12.96
2018-10-09T18:42:52.533Z,12.92
2018-10-09T18:45:26.615Z,12.86
2018-10-09T18:48:02.034Z,12.79
2018-10-09T18:50:35.104Z,12.73
2018-10-09T18:53:08.064Z,12.71
2018-10-09T18:55:43.297Z,12.68
2018-10-09T18:58:18.027Z,12.69
2018-10-09T19:00:56.388Z,12.57
2018-10-09T19:03:29.303Z,12.40
2018-10-09T19:06:10.121Z,12.25
2018-10-09T19:08:46.444Z,12.18
2018-10-09T19:11:26.406Z,12.28
2018-10-09T19:14:00.332Z,12.44
2018-10-09T19:16:48.452Z,12.49
2018-10-09T19:19:37.781Z,12.33
2018-10-09T19:22:19.379Z,12.12
2018-10-09T19:24:53.254Z,11.98
2018-10-09T19:27:26.780Z,11.88
2018-10-09T19:30:22.693Z,11.77
2018-10-09T19:32:58.934Z,11.63
2018-10-09T19:35:34.069Z,11.58
2018-10-09T19:38:10.185Z,11.51
2018-10-09T19:40:52.806Z,11.48
2018-10-09T19:43:29.564Z,11.44
2018-10-09T19:46:03.842Z,11.38
2018-10-09T19:48:39.386Z,11.37
2018-10-09T19:51:14.073Z,11.35
2018-10-09T19:53:46.760Z,11.27
2018-10-09T19:56:21.979Z,11.23
2018-10-09T19:58:55.797Z,11.13
2018-10-09T20:01:31.331Z,11.09
2018-10-09T20:04:08.180Z,11.09
2018-10-09T20:06:41.988Z,11.09
2018-10-09T20:09:15.457Z,11.10
2018-10-09T20:11:49.974Z,11.04
2018-10-09T20:14:25.388Z,11.00
2018-10-09T20:16:59.258Z,10.99
2018-10-09T20:19:37.459Z,11.04
2018-10-09T20:22:13.070Z,11.04
2018-10-09T20:24:48.114Z,11.09
2018-10-09T20:27:26.442Z,11.18
2018-10-09T20:30:00.146Z,11.26
2018-10-09T20:32:35.019Z,11.37
2018-10-09T20:35:09.079Z,11.45
2018-10-09T20:37:44.292Z,11.48
2018-10-09T20:40:17.708Z,11.50
2018-10-09T20:42:54.178Z,11.49
2018-10-09T20:45:28.738Z,11.47
2018-10-09T20:48:01.947Z,11.39
2018-10-09T20:50:38.383Z,11.18
2018-10-09T20:53:13.618Z,10.96
2018-10-09T20:55:48.832Z,10.79
2018-10-09T20:58:27.431Z,10.68
2018-10-09T21:01:01.693Z,10.67
2018-10-09T21:03:39.086Z,10.77
2018-10-09T21:06:14.137Z,10.95
2018-10-09T21:08:47.917Z,10.97
2018-10-09T21:11:25.278Z,11.12
2018-10-09T21:13:59.305Z,11.22
2018-10-09T21:16:41.839Z,11.16
2018-10-09T21:19:22.267Z,11.12
2018-10-09T21:21:56.687Z,11.26
2018-10-09T21:24:30.831Z,11.42
2018-10-09T21:27:05.812Z,11.62
2018-10-09T21:29:41.363Z,11.76
2018-10-09T21:32:14.647Z,11.95
2018-10-09T21:34:49.436Z,12.03
2018-10-09T21:37:24.050Z,11.78
2018-10-09T21:39:57.569Z,11.50
2018-10-09T21:42:31.314Z,11.31
2018-10-09T21:45:07.860Z,11.21
2018-10-09T21:47:47.038Z,11.29
2018-10-09T21:50:20.898Z,11.19
2018-10-09T21:52:54.069Z,11.19
2018-10-09T21:55:30.108Z,11.23
2018-10-09T21:58:03.158Z,11.28
2018-10-09T22:00:42.800Z,11.25
2018-10-09T22:03:17.452Z,11.24
2018-10-09T22:05:51.646Z,11.33
2018-10-09T22:08:26.447Z,11.53
2018-10-09T22:10:59.585Z,11.57
2018-10-09T22:13:33.737Z,11.75
2018-10-09T22:16:12.837Z,11.93
2018-10-09T22:18:47.008Z,11.98
2018-10-09T22:21:20.754Z,11.97
2018-10-09T22:23:55.157Z,11.96
2018-10-09T22:26:28.250Z,12.00
2018-10-09T22:29:01.123Z,12.10
2018-10-09T22:31:35.187Z,12.23
2018-10-09T22:34:08.715Z,12.33
2018-10-09T22:36:58.320Z,12.37
2018-10-09T22:39:33.291Z,12.40
2018-10-09T22:42:08.095Z,12.41
2018-10-09T22:44:41.564Z,12.49
2018-10-09T22:47:16.791Z,12.57
2018-10-09T22:49:51.420Z,12.50
2018-10-09T22:52:25.822Z,12.48
2018-10-09T22:54:59.661Z,12.53
2018-10-09T22:57:33.041Z,12.50
2018-10-09T23:00:12.764Z,12.44
2018-10-09T23:02:45.800Z,12.32
2018-10-09T23:05:19.532Z,12.27
2018-10-09T23:07:53.998Z,12.22
2018-10-09T23:10:27.258Z,12.21
2018-10-09T23:13:00.870Z,12.23
2018-10-09T23:15:34.668Z,12.27
2018-10-09T23:18:07.978Z,12.22
2018-10-09T23:20:41.172Z,12.16
2018-10-09T23:23:15.533Z,12.02
2018-10-09T23:25:50.041Z,11.86
2018-10-09T23:28:22.767Z,11.76
2018-10-09T23:30:59.998Z,11.84
2018-10-09T23:33:34.312Z,11.87
2018-10-09T23:36:07.338Z,11.88
2018-10-09T23:38:41.435Z,11.90
2018-10-09T23:41:14.298Z,11.96
2018-10-09T23:43:48.477Z,11.87
2018-10-09T23:46:22.933Z,11.78
2018-10-09T23:48:55.956Z,11.59
2018-10-09T23:51:29.176Z,11.46
2018-10-09T23:54:03.491Z,11.37
2018-10-09T23:56:37.329Z,11.45
2018-10-09T23:59:10.984Z,11.38
